createdAt,value
2023-05-01T00:00:29.811Z,9.74
2023-05-01T00:01:29.809Z,9.73
2023-05-01T00:02:29.859Z,9.74
2023-05-01T00:03:29.892Z,9.73
2023-05-01T00:04:29.804Z,9.68
2023-05-01T00:05:29.811Z,9.71
2023-05-01T00:06:29.827Z,9.68
2023-05-01T00:07:29.732Z,9.68
2023-05-01T00:08:29.715Z,9.68
2023-05-01T00:09:29.732Z,9.67
2023-05-01T00:10:29.689Z,9.65
2023-05-01T00:11:29.784Z,9.63
2023-05-01T00:12:29.668Z,9.60
2023-05-01T00:13:29.657Z,9.62
2023-05-01T00:14:29.644Z,9.58
2023-05-01T00:15:29.640Z,9.58
2023-05-01T00:16:29.663Z,9.56
2023-05-01T00:17:29.633Z,9.58
2023-05-01T00:18:29.608Z,9.55
2023-05-01T00:19:29.599Z,9.55
2023-05-01T00:20:29.603Z,9.55
2023-05-01T00:21:29.588Z,9.50
2023-05-01T00:22:29.578Z,9.50
2023-05-01T00:23:29.545Z,9.49
2023-05-01T00:24:29.538Z,9.44
2023-05-01T00:25:29.531Z,9.44
2023-05-01T00:26:29.528Z,9.41
2023-05-01T00:27:29.512Z,9.41
2023-05-01T00:28:29.532Z,9.40
2023-05-01T00:29:29.489Z,9.41
2023-05-01T00:30:29.485Z,9.38
2023-05-01T00:31:29.566Z,9.40
2023-05-01T00:32:29.619Z,9.35
2023-05-01T00:33:29.449Z,9.34
2023-05-01T00:34:29.430Z,9.32
2023-05-01T00:35:29.432Z,9.31
2023-05-01T00:36:29.442Z,9.32
2023-05-01T00:37:29.431Z,9.32
2023-05-01T00:38:29.389Z,9.31
2023-05-01T00:39:29.383Z,9.31
2023-05-01T00:40:29.369Z,9.30
2023-05-01T00:41:29.406Z,9.26
2023-05-01T00:42:29.351Z,9.24
2023-05-01T00:43:29.393Z,9.27
2023-05-01T00:44:29.333Z,9.27
2023-05-01T00:45:29.350Z,9.27
2023-05-01T00:46:29.348Z,9.24
2023-05-01T00:47:29.335Z,9.20
2023-05-01T00:48:29.294Z,9.22
2023-05-01T00:49:29.313Z,9.17
2023-05-01T00:50:29.261Z,9.17
2023-05-01T00:51:29.295Z,9.17
2023-05-01T00:52:29.280Z,9.10
2023-05-01T00:53:29.268Z,9.08
2023-05-01T00:54:29.223Z,9.04
2023-05-01T00:55:29.218Z,9.03
2023-05-01T00:56:29.222Z,9.10
2023-05-01T00:57:29.214Z,9.06
2023-05-01T00:58:29.184Z,9.03
2023-05-01T00:59:29.169Z,9.00
2023-05-01T01:00:29.188Z,8.97
2023-05-01T01:01:29.214Z,8.94
2023-05-01T01:02:29.179Z,8.93
2023-05-01T01:03:29.117Z,8.93
2023-05-01T01:04:29.181Z,8.89
2023-05-01T01:05:29.157Z,8.88
2023-05-01T01:06:29.233Z,8.88
2023-05-01T01:07:29.086Z,8.89
2023-05-01T01:08:30.683Z,8.88
2023-05-01T01:09:29.088Z,8.86
2023-05-01T01:10:29.075Z,8.82
2023-05-01T01:11:29.064Z,8.80
2023-05-01T01:12:29.023Z,8.80
2023-05-01T01:13:29.026Z,8.76
2023-05-01T01:14:29.040Z,8.75
2023-05-01T01:15:29.013Z,8.71
2023-05-01T01:16:29.039Z,8.68
2023-05-01T01:17:29.000Z,8.64
2023-05-01T01:18:28.963Z,8.63
2023-05-01T01:19:28.946Z,8.55
2023-05-01T01:20:28.947Z,8.52
2023-05-01T01:21:28.942Z,8.52
2023-05-01T01:22:28.930Z,8.50
2023-05-01T01:23:28.929Z,8.47
2023-05-01T01:24:28.932Z,8.46
2023-05-01T01:25:28.905Z,8.45
2023-05-01T01:26:28.881Z,8.43
2023-05-01T01:27:28.881Z,8.42
2023-05-01T01:28:28.903Z,8.40
2023-05-01T01:29:28.848Z,8.40
2023-05-01T01:30:28.862Z,8.37
2023-05-01T01:31:28.917Z,8.39
2023-05-01T01:32:28.903Z,8.36
2023-05-01T01:33:28.799Z,8.36
2023-05-01T01:34:28.799Z,8.32
2023-05-01T01:35:28.845Z,8.31
2023-05-01T01:36:28.784Z,8.28
2023-05-01T01:37:28.758Z,8.24
2023-05-01T01:38:28.759Z,8.24
2023-05-01T01:39:28.730Z,8.21
2023-05-01T01:40:28.809Z,8.21
2023-05-01T01:41:28.707Z,8.20
2023-05-01T01:42:28.715Z,8.22
2023-05-01T01:43:28.711Z,8.20
2023-05-01T01:44:28.681Z,8.14
2023-05-01T01:45:28.700Z,8.13
2023-05-01T01:46:28.693Z,8.14
2023-05-01T01:47:28.724Z,8.12
2023-05-01T01:48:28.649Z,8.09
2023-05-01T01:49:28.631Z,8.07
2023-05-01T01:50:28.691Z,8.10
2023-05-01T01:51:28.606Z,8.07
2023-05-01T01:52:28.616Z,8.07
2023-05-01T01:53:28.607Z,8.06
2023-05-01T01:54:28.574Z,8.06
2023-05-01T01:55:28.564Z,8.07
2023-05-01T01:56:28.575Z,8.03
2023-05-01T01:57:28.539Z,8.02
2023-05-01T01:58:28.532Z,7.99
2023-05-01T01:59:28.517Z,7.95
2023-05-01T02:00:28.517Z,7.99
2023-05-01T02:01:28.551Z,7.99
2023-05-01T02:02:28.577Z,7.96
2023-05-01T02:03:28.548Z,7.95
2023-05-01T02:04:28.471Z,7.92
2023-05-01T02:05:28.466Z,7.92
2023-05-01T02:06:28.526Z,7.89
2023-05-01T02:07:28.430Z,7.89
2023-05-01T02:08:28.440Z,7.88
2023-05-01T02:09:28.413Z,7.89
2023-05-01T02:10:28.405Z,7.88
2023-05-01T02:11:28.461Z,7.91
2023-05-01T02:12:28.393Z,7.86
2023-05-01T02:13:28.371Z,7.86
2023-05-01T02:14:28.363Z,7.85
2023-05-01T02:15:28.375Z,7.84
2023-05-01T02:16:28.353Z,7.84
2023-05-01T02:17:28.366Z,7.82
2023-05-01T02:18:28.329Z,7.79
2023-05-01T02:19:28.467Z,7.81
2023-05-01T02:20:28.365Z,7.77
2023-05-01T02:21:28.310Z,7.74
2023-05-01T02:22:28.272Z,7.71
2023-05-01T02:23:28.271Z,7.73
2023-05-01T02:24:28.262Z,7.70
2023-05-01T02:25:29.558Z,7.67
2023-05-01T02:26:28.260Z,7.67
2023-05-01T02:27:28.228Z,7.67
2023-05-01T02:28:28.222Z,7.60
2023-05-01T02:29:28.245Z,7.62
2023-05-01T02:30:28.223Z,7.62
2023-05-01T02:31:28.225Z,7.62
2023-05-01T02:32:28.280Z,7.66
2023-05-01T02:33:28.164Z,7.69
2023-05-01T02:34:28.163Z,7.67
2023-05-01T02:35:28.159Z,7.62
2023-05-01T02:36:28.140Z,7.62
2023-05-01T02:37:28.114Z,7.63
2023-05-01T02:38:28.104Z,7.62
2023-05-01T02:39:28.098Z,7.58
2023-05-01T02:40:28.095Z,7.57
2023-05-01T02:41:28.078Z,7.58
2023-05-01T02:42:28.068Z,7.55
2023-05-01T02:43:28.044Z,7.52
2023-05-01T02:44:28.044Z,7.55
2023-05-01T02:45:28.085Z,7.54
2023-05-01T02:46:28.059Z,7.52
2023-05-01T02:47:28.105Z,7.50
2023-05-01T02:48:27.990Z,7.48
2023-05-01T02:49:27.985Z,7.48
2023-05-01T02:50:28.004Z,7.47
2023-05-01T02:51:27.963Z,7.45
2023-05-01T02:52:27.966Z,7.47
2023-05-01T02:53:27.941Z,7.45
2023-05-01T02:54:27.944Z,7.44
2023-05-01T02:55:27.952Z,7.42
2023-05-01T02:56:27.949Z,7.41
2023-05-01T02:57:27.911Z,7.37
2023-05-01T02:58:27.899Z,7.37
2023-05-01T02:59:27.877Z,7.32
2023-05-01T03:00:27.891Z,7.30
2023-05-01T03:01:28.000Z,7.29
2023-05-01T03:02:27.812Z,7.27
2023-05-01T03:03:27.810Z,7.26
2023-05-01T03:04:27.874Z,7.23
2023-05-01T03:05:27.832Z,7.21
2023-05-01T03:06:27.777Z,7.18
2023-05-01T03:07:27.739Z,7.12
2023-05-01T03:08:27.731Z,7.09
2023-05-01T03:09:27.773Z,7.07
2023-05-01T03:10:27.805Z,7.04
2023-05-01T03:11:27.810Z,7.01
2023-05-01T03:12:27.689Z,6.99
2023-05-01T03:13:27.672Z,6.99
2023-05-01T03:14:27.659Z,6.99
2023-05-01T03:15:27.658Z,7.00
2023-05-01T03:16:27.710Z,7.01
2023-05-01T03:17:27.661Z,7.04
2023-05-01T03:18:27.625Z,7.04
2023-05-01T03:19:27.622Z,7.05
2023-05-01T03:20:27.770Z,7.04
2023-05-01T03:21:27.578Z,7.07
2023-05-01T03:22:27.589Z,7.08
2023-05-01T03:23:27.554Z,7.05
2023-05-01T03:24:27.550Z,7.08
2023-05-01T03:25:27.558Z,7.08
2023-05-01T03:26:27.531Z,7.07
2023-05-01T03:27:27.513Z,7.08
2023-05-01T03:28:27.548Z,7.07
2023-05-01T03:29:27.501Z,7.07
2023-05-01T03:30:27.504Z,7.08
2023-05-01T03:31:27.532Z,7.05
2023-05-01T03:32:27.555Z,7.05
2023-05-01T03:33:27.466Z,7.05
2023-05-01T03:34:27.461Z,7.09
2023-05-01T03:35:27.533Z,7.11
2023-05-01T03:36:27.423Z,7.12
2023-05-01T03:37:27.400Z,7.11
2023-05-01T03:38:27.414Z,7.09
2023-05-01T03:39:27.374Z,7.05
2023-05-01T03:40:27.380Z,7.05
2023-05-01T03:41:27.368Z,7.07
2023-05-01T03:42:27.349Z,7.07
2023-05-01T03:43:27.344Z,7.05
2023-05-01T03:44:27.342Z,7.05
2023-05-01T03:45:27.357Z,7.07
2023-05-01T03:46:27.386Z,7.08
2023-05-01T03:47:27.327Z,7.08
2023-05-01T03:48:27.295Z,7.07
2023-05-01T03:49:27.300Z,7.05
2023-05-01T03:50:27.415Z,7.05
2023-05-01T03:51:27.265Z,7.04
2023-05-01T03:52:27.248Z,7.08
2023-05-01T03:53:27.243Z,7.07
2023-05-01T03:54:27.221Z,7.04
2023-05-01T03:55:27.220Z,7.05
2023-05-01T03:56:27.203Z,7.04
2023-05-01T03:57:27.200Z,7.07
2023-05-01T03:58:27.181Z,7.08
2023-05-01T03:59:27.167Z,7.09
2023-05-01T04:00:27.194Z,7.07
2023-05-01T04:01:27.146Z,7.08
2023-05-01T04:02:27.220Z,7.08
2023-05-01T04:03:27.337Z,7.07
2023-05-01T04:04:27.165Z,7.12
2023-05-01T04:05:27.125Z,7.12
2023-05-01T04:06:27.184Z,7.12
2023-05-01T04:07:27.093Z,7.15
2023-05-01T04:08:27.081Z,7.12
2023-05-01T04:09:27.076Z,7.14
2023-05-01T04:10:27.068Z,7.16
2023-05-01T04:11:27.072Z,7.15
2023-05-01T04:12:27.046Z,7.15
2023-05-01T04:13:27.028Z,7.15
2023-05-01T04:14:27.089Z,7.14
2023-05-01T04:15:27.019Z,7.14
2023-05-01T04:16:27.055Z,7.16
2023-05-01T04:17:26.973Z,7.14
2023-05-01T04:18:26.969Z,7.14
2023-05-01T04:19:26.992Z,7.18
2023-05-01T04:20:26.973Z,7.18
2023-05-01T04:21:26.932Z,7.19
2023-05-01T04:22:27.117Z,7.21
2023-05-01T04:23:26.913Z,7.23
2023-05-01T04:24:26.899Z,7.23
2023-05-01T04:25:26.902Z,7.19
2023-05-01T04:26:26.900Z,7.23
2023-05-01T04:27:26.871Z,7.21
2023-05-01T04:28:26.867Z,7.23
2023-05-01T04:29:26.855Z,7.24
2023-05-01T04:30:26.831Z,7.23
2023-05-01T04:31:26.887Z,7.24
2023-05-01T04:32:27.180Z,7.24
2023-05-01T04:33:26.802Z,7.26
2023-05-01T04:34:26.809Z,7.24
2023-05-01T04:35:26.817Z,7.23
2023-05-01T04:36:26.781Z,7.26
2023-05-01T04:37:26.765Z,7.26
2023-05-01T04:38:26.754Z,7.27
2023-05-01T04:39:26.741Z,7.29
2023-05-01T04:40:26.743Z,7.29
2023-05-01T04:41:26.706Z,7.29
2023-05-01T04:42:26.713Z,7.27
2023-05-01T04:43:26.704Z,7.30
2023-05-01T04:44:26.679Z,7.32
2023-05-01T04:45:26.684Z,7.30
2023-05-01T04:46:26.689Z,7.34
2023-05-01T04:47:26.646Z,7.36
2023-05-01T04:48:26.662Z,7.39
2023-05-01T04:49:26.646Z,7.41
2023-05-01T04:50:26.623Z,7.41
2023-05-01T04:51:26.603Z,7.44
2023-05-01T04:52:26.681Z,7.44
2023-05-01T04:53:26.627Z,7.45
2023-05-01T04:54:26.611Z,7.47
2023-05-01T04:55:27.396Z,7.42
2023-05-01T04:56:26.559Z,7.42
2023-05-01T04:57:26.542Z,7.42
2023-05-01T04:58:26.549Z,7.44
2023-05-01T04:59:26.529Z,7.50
2023-05-01T05:00:26.525Z,7.52
2023-05-01T05:01:26.598Z,7.54
2023-05-01T05:02:26.570Z,7.55
2023-05-01T05:03:26.602Z,7.55
2023-05-01T05:04:26.481Z,7.55
2023-05-01T05:05:26.478Z,7.57
2023-05-01T05:06:26.506Z,7.60
2023-05-01T05:07:26.442Z,7.58
2023-05-01T05:08:26.440Z,7.58
2023-05-01T05:09:26.409Z,7.60
2023-05-01T05:10:26.426Z,7.63
2023-05-01T05:11:26.409Z,7.67
2023-05-01T05:12:26.395Z,7.70
2023-05-01T05:13:26.444Z,7.70
2023-05-01T05:14:26.366Z,7.73
2023-05-01T05:15:26.366Z,7.73
2023-05-01T05:16:26.364Z,7.73
2023-05-01T05:17:26.321Z,7.74
2023-05-01T05:18:26.317Z,7.74
2023-05-01T05:19:26.304Z,7.74
2023-05-01T05:20:26.300Z,7.74
2023-05-01T05:21:26.300Z,7.74
2023-05-01T05:22:26.275Z,7.74
2023-05-01T05:23:26.259Z,7.79
2023-05-01T05:24:26.242Z,7.82
2023-05-01T05:25:26.245Z,7.86
2023-05-01T05:26:26.213Z,7.89
2023-05-01T05:27:26.226Z,7.94
2023-05-01T05:28:26.209Z,7.96
2023-05-01T05:29:26.202Z,7.96
2023-05-01T05:30:26.190Z,8.00
2023-05-01T05:31:26.216Z,8.02
2023-05-01T05:32:26.378Z,8.04
2023-05-01T05:33:26.197Z,8.07
2023-05-01T05:34:26.131Z,8.09
2023-05-01T05:35:26.163Z,8.12
2023-05-01T05:36:26.146Z,8.18
2023-05-01T05:37:26.129Z,8.20
2023-05-01T05:38:26.094Z,8.25
2023-05-01T05:39:26.090Z,8.28
2023-05-01T05:40:26.114Z,8.32
2023-05-01T05:41:26.070Z,8.29
2023-05-01T05:42:26.072Z,8.31
2023-05-01T05:43:27.998Z,8.32
2023-05-01T05:44:26.068Z,8.34
2023-05-01T05:45:26.030Z,8.37
2023-05-01T05:46:26.107Z,8.40
2023-05-01T05:47:26.048Z,8.40
2023-05-01T05:48:26.020Z,8.45
2023-05-01T05:49:25.994Z,8.43
2023-05-01T05:50:25.982Z,8.46
2023-05-01T05:51:25.959Z,8.49
2023-05-01T05:52:25.948Z,8.49
2023-05-01T05:53:26.403Z,8.52
2023-05-01T05:54:25.950Z,8.60
2023-05-01T05:55:25.921Z,8.58
2023-05-01T05:56:25.924Z,8.61
2023-05-01T05:57:25.897Z,8.63
2023-05-01T05:58:25.891Z,8.60
2023-05-01T05:59:25.893Z,8.65
2023-05-01T06:00:25.862Z,8.73
2023-05-01T06:01:25.865Z,8.78
2023-05-01T06:02:25.990Z,8.82
2023-05-01T06:03:25.940Z,8.86
2023-05-01T06:04:25.864Z,8.91
2023-05-01T06:05:25.897Z,8.93
2023-05-01T06:06:25.861Z,9.00
2023-05-01T06:07:25.812Z,9.01
2023-05-01T06:08:25.790Z,9.04
2023-05-01T06:09:25.795Z,9.06
2023-05-01T06:10:25.761Z,9.04
2023-05-01T06:11:25.749Z,9.13
2023-05-01T06:12:25.726Z,9.17
2023-05-01T06:13:25.740Z,9.22
2023-05-01T06:14:25.743Z,9.24
2023-05-01T06:15:25.708Z,9.27
2023-05-01T06:16:25.760Z,9.32
2023-05-01T06:17:25.694Z,9.37
2023-05-01T06:18:25.668Z,9.44
2023-05-01T06:19:25.689Z,9.53
2023-05-01T06:20:25.654Z,9.58
2023-05-01T06:21:25.660Z,9.62
2023-05-01T06:22:25.654Z,9.70
2023-05-01T06:23:25.629Z,9.74
2023-05-01T06:24:25.635Z,9.77
2023-05-01T06:25:25.602Z,9.81
2023-05-01T06:26:25.582Z,9.86
2023-05-01T06:27:25.590Z,9.89
2023-05-01T06:28:25.569Z,9.93
2023-05-01T06:29:25.596Z,9.98
2023-05-01T06:30:25.557Z,10.04
2023-05-01T06:31:25.602Z,10.07
2023-05-01T06:32:25.581Z,10.13
2023-05-01T06:33:25.528Z,10.17
2023-05-01T06:34:25.518Z,10.22
2023-05-01T06:35:25.526Z,10.31
2023-05-01T06:36:25.476Z,10.36
2023-05-01T06:37:25.466Z,10.42
2023-05-01T06:38:27.005Z,10.49
2023-05-01T06:39:25.469Z,10.49
2023-05-01T06:40:25.439Z,10.51
2023-05-01T06:41:25.437Z,10.52
2023-05-01T06:42:25.414Z,10.60
2023-05-01T06:43:25.409Z,10.66
2023-05-01T06:44:25.412Z,10.72
2023-05-01T06:45:25.381Z,10.78
2023-05-01T06:46:25.406Z,10.84
2023-05-01T06:47:25.377Z,10.90
2023-05-01T06:48:25.376Z,10.99
2023-05-01T06:49:25.384Z,11.01
2023-05-01T06:50:25.367Z,11.02
2023-05-01T06:51:25.319Z,11.08
2023-05-01T06:52:25.302Z,11.13
2023-05-01T06:53:25.305Z,11.23
2023-05-01T06:54:25.310Z,11.28
2023-05-01T06:55:25.284Z,11.39
2023-05-01T06:56:25.257Z,11.46
2023-05-01T06:57:25.271Z,11.49
2023-05-01T06:58:25.237Z,11.54
2023-05-01T06:59:25.263Z,11.64
2023-05-01T07:00:25.234Z,11.78
2023-05-01T07:01:25.259Z,11.82
2023-05-01T07:02:25.214Z,11.93
2023-05-01T07:03:25.280Z,11.96
2023-05-01T07:04:25.207Z,12.03
2023-05-01T07:05:25.190Z,12.08
2023-05-01T07:06:25.248Z,12.19
2023-05-01T07:07:25.168Z,12.23
2023-05-01T07:08:25.150Z,12.30
2023-05-01T07:09:25.162Z,12.33
2023-05-01T07:10:25.128Z,12.34
2023-05-01T07:11:25.106Z,12.30
2023-05-01T07:12:25.091Z,12.25
2023-05-01T07:13:25.115Z,12.22
2023-05-01T07:14:25.116Z,12.25
2023-05-01T07:15:25.079Z,12.31
2023-05-01T07:16:25.095Z,12.43
2023-05-01T07:17:25.103Z,12.55
2023-05-01T07:18:25.043Z,12.59
2023-05-01T07:19:25.033Z,12.56
2023-05-01T07:20:25.079Z,12.63
2023-05-01T07:21:25.003Z,12.74
2023-05-01T07:22:24.987Z,12.85
2023-05-01T07:23:24.982Z,12.92
2023-05-01T07:24:25.019Z,13.07
2023-05-01T07:25:24.981Z,13.22
2023-05-01T07:26:24.959Z,13.32
2023-05-01T07:27:24.942Z,13.43
2023-05-01T07:28:24.923Z,13.55
2023-05-01T07:29:24.963Z,13.72
2023-05-01T07:30:24.901Z,13.87
2023-05-01T07:31:24.931Z,13.99
2023-05-01T07:32:24.893Z,14.05
2023-05-01T07:33:24.967Z,14.20
2023-05-01T07:34:24.894Z,14.46
2023-05-01T07:35:24.863Z,14.80
2023-05-01T07:36:24.851Z,14.94
2023-05-01T07:37:24.833Z,15.22
2023-05-01T07:38:24.872Z,15.70
2023-05-01T07:39:24.826Z,16.63
2023-05-01T07:40:24.853Z,17.58
2023-05-01T07:41:24.804Z,18.65
2023-05-01T07:42:24.796Z,19.53
2023-05-01T07:43:24.775Z,20.05
2023-05-01T07:44:24.776Z,20.23
2023-05-01T07:45:24.757Z,20.19
2023-05-01T07:46:24.811Z,19.97
2023-05-01T07:47:24.843Z,19.78
2023-05-01T07:48:24.750Z,19.53
2023-05-01T07:49:24.754Z,19.43
2023-05-01T07:50:24.749Z,19.45
2023-05-01T07:51:24.714Z,19.10
2023-05-01T07:52:24.658Z,18.62
2023-05-01T07:53:24.681Z,18.39
2023-05-01T07:54:24.697Z,18.35
2023-05-01T07:55:24.660Z,18.56
2023-05-01T07:56:24.698Z,18.35
2023-05-01T07:57:24.616Z,18.16
2023-05-01T07:58:24.650Z,18.17
2023-05-01T07:59:24.624Z,18.87
2023-05-01T08:00:24.639Z,18.86
2023-05-01T08:01:24.598Z,18.86
2023-05-01T08:02:24.672Z,19.38
2023-05-01T08:03:24.742Z,19.62
2023-05-01T08:04:24.644Z,20.35
2023-05-01T08:05:24.556Z,20.58
2023-05-01T08:06:24.583Z,21.13
2023-05-01T08:07:24.513Z,21.73
2023-05-01T08:08:24.526Z,22.27
2023-05-01T08:09:24.517Z,22.78
2023-05-01T08:10:24.511Z,23.03
2023-05-01T08:11:24.493Z,23.44
2023-05-01T08:12:24.456Z,23.14
2023-05-01T08:13:24.471Z,22.94
2023-05-01T08:14:24.502Z,22.88
2023-05-01T08:15:24.459Z,22.97
2023-05-01T08:16:24.481Z,23.23
2023-05-01T08:17:24.495Z,23.09
2023-05-01T08:18:24.385Z,23.07
2023-05-01T08:19:24.445Z,22.81
2023-05-01T08:20:24.367Z,22.61
2023-05-01T08:21:24.368Z,22.44
2023-05-01T08:22:24.351Z,22.49
2023-05-01T08:23:24.350Z,22.39
2023-05-01T08:24:24.516Z,22.15
2023-05-01T08:25:24.377Z,21.75
2023-05-01T08:26:24.336Z,21.83
2023-05-01T08:27:24.302Z,21.70
2023-05-01T08:28:24.291Z,22.02
2023-05-01T08:29:24.318Z,21.85
2023-05-01T08:30:24.274Z,21.93
2023-05-01T08:31:24.278Z,21.82
2023-05-01T08:32:24.320Z,21.53
2023-05-01T08:33:24.235Z,21.66
2023-05-01T08:34:24.292Z,21.55
2023-05-01T08:35:24.245Z,21.56
2023-05-01T08:36:24.244Z,21.08
2023-05-01T08:37:24.243Z,20.73
2023-05-01T08:38:24.203Z,20.60
2023-05-01T08:39:24.210Z,20.53
2023-05-01T08:40:24.164Z,20.50
2023-05-01T08:41:24.159Z,20.71
2023-05-01T08:42:24.135Z,20.88
2023-05-01T08:43:24.181Z,21.06
2023-05-01T08:44:24.148Z,21.33
2023-05-01T08:45:24.132Z,21.67
2023-05-01T08:46:24.156Z,21.49
2023-05-01T08:47:24.123Z,21.06
2023-05-01T08:48:24.071Z,21.21
2023-05-01T08:49:24.097Z,21.56
2023-05-01T08:50:24.070Z,21.71
2023-05-01T08:51:24.047Z,20.96
2023-05-01T08:52:24.032Z,20.82
2023-05-01T08:53:24.072Z,21.40
2023-05-01T08:54:24.057Z,21.77
2023-05-01T08:55:24.015Z,22.14
2023-05-01T08:56:23.990Z,22.29
2023-05-01T08:57:23.993Z,21.85
2023-05-01T08:58:23.979Z,21.38
2023-05-01T08:59:23.969Z,21.36
2023-05-01T09:00:23.952Z,21.48
2023-05-01T09:01:23.967Z,21.61
2023-05-01T09:02:24.001Z,21.30
2023-05-01T09:03:23.998Z,20.53
2023-05-01T09:04:24.080Z,20.41
2023-05-01T09:05:23.906Z,20.05
2023-05-01T09:06:23.938Z,20.02
2023-05-01T09:07:23.943Z,20.13
2023-05-01T09:08:23.855Z,20.00
2023-05-01T09:09:23.886Z,20.04
2023-05-01T09:10:23.872Z,20.38
2023-05-01T09:11:23.843Z,20.38
2023-05-01T09:12:23.818Z,20.90
2023-05-01T09:13:23.835Z,21.36
2023-05-01T09:14:23.901Z,21.03
2023-05-01T09:15:23.795Z,21.22
2023-05-01T09:16:23.796Z,21.49
2023-05-01T09:17:23.820Z,21.42
2023-05-01T09:18:23.759Z,21.82
2023-05-01T09:19:23.786Z,22.05
2023-05-01T09:20:23.741Z,22.01
2023-05-01T09:21:23.728Z,22.30
2023-05-01T09:22:23.723Z,22.45
2023-05-01T09:23:23.729Z,22.17
2023-05-01T09:24:23.756Z,22.09
2023-05-01T09:25:23.762Z,22.56
2023-05-01T09:26:23.705Z,22.85
2023-05-01T09:27:23.666Z,23.14
2023-05-01T09:28:23.674Z,23.22
2023-05-01T09:29:23.685Z,23.23
2023-05-01T09:30:23.639Z,23.06
2023-05-01T09:31:23.744Z,22.76
2023-05-01T09:32:23.710Z,22.44
2023-05-01T09:33:23.637Z,22.27
2023-05-01T09:34:23.642Z,22.01
2023-05-01T09:35:23.602Z,21.99
2023-05-01T09:36:23.579Z,21.83
2023-05-01T09:37:23.563Z,21.61
2023-05-01T09:38:23.587Z,21.73
2023-05-01T09:39:23.562Z,21.67
2023-05-01T09:40:23.550Z,20.85
2023-05-01T09:41:23.569Z,21.09
2023-05-01T09:42:23.514Z,21.28
2023-05-01T09:43:23.501Z,21.82
2023-05-01T09:44:23.495Z,22.54
2023-05-01T09:45:23.768Z,22.91
2023-05-01T09:46:23.500Z,23.50
2023-05-01T09:47:23.483Z,23.78
2023-05-01T09:48:23.443Z,23.71
2023-05-01T09:49:23.469Z,23.97
2023-05-01T09:50:23.439Z,23.96
2023-05-01T09:51:23.442Z,23.37
2023-05-01T09:52:23.409Z,22.99
2023-05-01T09:53:23.410Z,22.57
2023-05-01T09:54:23.417Z,21.99
2023-05-01T09:55:25.446Z,22.15
2023-05-01T09:56:23.373Z,21.85
2023-05-01T09:57:23.360Z,21.81
2023-05-01T09:58:23.373Z,21.66
2023-05-01T09:59:23.367Z,21.01
2023-05-01T10:00:23.349Z,20.72
2023-05-01T10:01:23.337Z,20.54
2023-05-01T10:02:23.449Z,20.48
2023-05-01T10:03:23.446Z,20.30
2023-05-01T10:04:23.433Z,20.50
2023-05-01T10:05:23.274Z,20.44
2023-05-01T10:06:23.325Z,20.23
2023-05-01T10:07:23.252Z,20.44
2023-05-01T10:08:23.244Z,20.82
2023-05-01T10:09:23.292Z,21.38
2023-05-01T10:10:23.254Z,21.36
2023-05-01T10:11:23.209Z,21.28
2023-05-01T10:12:23.345Z,21.53
2023-05-01T10:13:23.184Z,20.75
2023-05-01T10:14:23.214Z,20.17
2023-05-01T10:15:26.590Z,20.07
2023-05-01T10:16:23.291Z,20.10
2023-05-01T10:17:23.161Z,20.13
2023-05-01T10:18:23.162Z,20.05
2023-05-01T10:19:23.369Z,20.46
2023-05-01T10:20:23.165Z,20.76
2023-05-01T10:21:23.181Z,20.88
2023-05-01T10:22:23.103Z,21.36
2023-05-01T10:23:23.102Z,21.48
2023-05-01T10:24:23.121Z,21.48
2023-05-01T10:25:23.069Z,21.61
2023-05-01T10:26:23.096Z,21.98
2023-05-01T10:27:23.080Z,21.99
2023-05-01T10:28:23.036Z,21.68
2023-05-01T10:29:23.058Z,21.94
2023-05-01T10:30:23.034Z,22.45
2023-05-01T10:31:23.056Z,23.04
2023-05-01T10:32:22.995Z,23.47
2023-05-01T10:33:23.023Z,23.57
2023-05-01T10:34:23.084Z,23.89
2023-05-01T10:35:22.991Z,23.57
2023-05-01T10:36:22.978Z,23.72
2023-05-01T10:37:22.964Z,23.42
2023-05-01T10:38:22.934Z,23.16
2023-05-01T10:39:22.943Z,23.31
2023-05-01T10:40:22.953Z,23.21
2023-05-01T10:41:22.917Z,23.47
2023-05-01T10:42:22.890Z,23.53
2023-05-01T10:43:22.901Z,22.97
2023-05-01T10:44:22.942Z,22.45
2023-05-01T10:45:22.888Z,22.02
2023-05-01T10:46:22.916Z,21.96
2023-05-01T10:47:22.862Z,21.21
2023-05-01T10:48:22.843Z,21.13
2023-05-01T10:49:22.838Z,21.51
2023-05-01T10:50:22.859Z,21.66
2023-05-01T10:51:24.958Z,21.81
2023-05-01T10:52:22.801Z,21.64
2023-05-01T10:53:22.767Z,21.34
2023-05-01T10:54:22.859Z,20.96
2023-05-01T10:55:22.749Z,21.01
2023-05-01T10:56:22.745Z,21.27
2023-05-01T10:57:22.732Z,21.00
2023-05-01T10:58:22.731Z,20.96
2023-05-01T10:59:22.740Z,20.97
2023-05-01T11:00:22.703Z,21.43
2023-05-01T11:01:22.733Z,21.53
2023-05-01T11:02:22.902Z,21.43
2023-05-01T11:03:22.692Z,21.31
2023-05-01T11:04:22.748Z,21.38
2023-05-01T11:05:35.799Z,21.21
2023-05-01T11:06:22.770Z,20.98
2023-05-01T11:07:22.808Z,21.03
2023-05-01T11:08:22.638Z,21.18
2023-05-01T11:09:22.666Z,21.28
2023-05-01T11:10:22.620Z,21.22
2023-05-01T11:11:22.591Z,21.15
2023-05-01T11:12:22.580Z,20.87
2023-05-01T11:13:22.585Z,20.73
2023-05-01T11:14:22.574Z,20.54
2023-05-01T11:15:22.551Z,20.60
2023-05-01T11:16:22.587Z,20.25
2023-05-01T11:17:22.574Z,19.98
2023-05-01T11:18:22.517Z,20.10
2023-05-01T11:19:22.545Z,20.20
2023-05-01T11:20:22.506Z,20.40
2023-05-01T11:21:22.490Z,20.41
2023-05-01T11:22:22.502Z,20.30
2023-05-01T11:23:22.464Z,20.10
2023-05-01T11:24:22.508Z,20.08
2023-05-01T11:25:22.443Z,20.33
2023-05-01T11:26:22.488Z,20.60
2023-05-01T11:27:22.431Z,20.54
2023-05-01T11:28:22.445Z,20.51
2023-05-01T11:29:22.402Z,20.60
2023-05-01T11:30:22.396Z,20.56
2023-05-01T11:31:22.414Z,20.66
2023-05-01T11:32:22.436Z,20.34
2023-05-01T11:33:22.395Z,20.44
2023-05-01T11:34:22.400Z,20.34
2023-05-01T11:35:22.359Z,20.61
2023-05-01T11:36:22.324Z,20.87
2023-05-01T11:37:22.327Z,21.06
2023-05-01T11:38:22.321Z,21.53
2023-05-01T11:39:22.341Z,22.09
2023-05-01T11:40:22.303Z,21.68
2023-05-01T11:41:22.268Z,21.12
2023-05-01T11:42:22.353Z,20.66
2023-05-01T11:43:22.255Z,20.61
2023-05-01T11:44:22.280Z,20.54
2023-05-01T11:45:22.241Z,20.63
2023-05-01T11:46:22.314Z,21.00
2023-05-01T11:47:22.286Z,21.08
2023-05-01T11:48:22.205Z,21.45
2023-05-01T11:49:22.242Z,22.20
2023-05-01T11:50:22.202Z,22.86
2023-05-01T11:51:22.205Z,23.22
2023-05-01T11:52:22.162Z,23.77
2023-05-01T11:53:22.155Z,24.30
2023-05-01T11:54:22.174Z,24.67
2023-05-01T11:55:22.137Z,25.04
2023-05-01T11:57:22.157Z,24.66
2023-05-01T11:58:22.110Z,24.75
2023-05-01T11:59:22.150Z,24.68
2023-05-01T12:00:22.085Z,24.74
2023-05-01T12:01:22.081Z,24.99
2023-05-01T12:02:22.083Z,25.17
2023-05-01T12:03:22.348Z,25.12
2023-05-01T12:04:22.119Z,25.14
2023-05-01T12:05:22.046Z,24.94
2023-05-01T12:06:22.068Z,24.89
2023-05-01T12:07:22.020Z,24.27
2023-05-01T12:08:21.995Z,23.94
2023-05-01T12:09:22.009Z,24.08
2023-05-01T12:10:21.988Z,24.36
2023-05-01T12:11:22.004Z,24.67
2023-05-01T12:12:21.958Z,24.39
2023-05-01T12:13:21.963Z,24.74
2023-05-01T12:14:21.986Z,24.86
2023-05-01T12:15:21.924Z,24.82
2023-05-01T12:16:21.948Z,24.92
2023-05-01T12:17:22.027Z,25.14
2023-05-01T12:18:21.919Z,25.12
2023-05-01T12:19:22.451Z,24.87
2023-05-01T12:20:21.886Z,24.53
2023-05-01T12:21:21.899Z,24.27
2023-05-01T12:22:21.928Z,23.93
2023-05-01T12:23:21.865Z,23.86
2023-05-01T12:24:21.919Z,23.78
2023-05-01T12:25:21.841Z,23.82
2023-05-01T12:26:21.843Z,23.69
2023-05-01T12:27:21.880Z,23.86
2023-05-01T12:28:21.791Z,24.18
2023-05-01T12:29:21.803Z,24.52
2023-05-01T12:30:21.773Z,24.74
2023-05-01T12:31:21.820Z,24.75
2023-05-01T12:32:21.752Z,25.17
2023-05-01T12:33:21.742Z,25.22
2023-05-01T12:34:21.766Z,24.36
2023-05-01T12:35:21.722Z,23.79
2023-05-01T12:36:21.704Z,23.74
2023-05-01T12:37:21.719Z,24.02
2023-05-01T12:38:21.708Z,24.00
2023-05-01T12:39:21.685Z,23.41
2023-05-01T12:40:21.670Z,23.21
2023-05-01T12:41:21.654Z,23.18
2023-05-01T12:42:21.651Z,23.18
2023-05-01T12:43:21.667Z,22.94
2023-05-01T12:44:21.632Z,22.76
2023-05-01T12:45:21.619Z,22.91
2023-05-01T12:46:21.665Z,23.22
2023-05-01T12:47:21.592Z,23.26
2023-05-01T12:48:21.614Z,23.69
2023-05-01T12:49:21.579Z,24.06
2023-05-01T12:50:21.568Z,24.09
2023-05-01T12:51:21.564Z,23.41
2023-05-01T12:52:21.541Z,23.39
2023-05-01T12:53:21.546Z,23.54
2023-05-01T12:54:21.562Z,23.23
2023-05-01T12:55:21.521Z,23.22
2023-05-01T12:56:21.499Z,23.47
2023-05-01T12:57:21.488Z,23.72
2023-05-01T12:58:21.476Z,23.72
2023-05-01T12:59:21.489Z,23.59
2023-05-01T13:00:21.463Z,23.87
2023-05-01T13:01:21.499Z,23.92
2023-05-01T13:02:21.585Z,23.38
2023-05-01T13:03:21.491Z,23.09
2023-05-01T13:04:21.536Z,22.96
2023-05-01T13:05:21.405Z,23.63
2023-05-01T13:06:21.450Z,23.74